Time;durP1;ratioP1;P1;durP2;ratioP2;P2;SDS_P1;SDS_P2;PMS_P1;PMS_P2;Temp;Humidity;BMP_temperature;BMP_pressure;BME280_temperature;BME280_humidity;BME280_pressure;Samples;Min_cycle;Max_cycle;Signal;HPM_P1;HPM_P2
2022/04/17 00:01:25;;;;;;;2.17;1.93;;;;;6.00;97782.00;;;;4971699;28;20234;-85
2022/04/17 00:03:54;;;;;;;2.70;2.50;;;;;5.70;97761.00;;;;4972518;28;20227;-86
2022/04/17 00:06:23;;;;;;;2.43;2.07;;;;;5.90;97751.00;;;;4973435;28;20265;-85
2022/04/17 00:08:52;;;;;;;2.53;2.13;;;;;5.80;97749.00;;;;4972344;28;20282;-85
2022/04/17 00:11:21;;;;;;;1.90;1.80;;;;;6.10;97755.00;;;;4973530;28;20219;-85
2022/04/17 00:13:50;;;;;;;3.17;2.17;;;;;5.60;97756.00;;;;4974563;28;20693;-84
2022/04/17 00:16:18;;;;;;;4.13;2.13;;;;;5.70;97747.00;;;;4974152;28;20286;-86
2022/04/17 00:18:48;;;;;;;3.30;2.10;;;;;5.70;97752.00;;;;4973169;28;20211;-84
2022/04/17 00:21:17;;;;;;;2.17;1.60;;;;;5.60;97761.00;;;;4975076;28;20234;-84
2022/04/17 00:23:46;;;;;;;2.00;1.90;;;;;5.60;97747.00;;;;4975483;28;20225;-86
2022/04/17 00:26:15;;;;;;;2.40;2.20;;;;;5.80;97765.00;;;;4976177;28;20210;-85
2022/04/17 00:28:44;;;;;;;3.53;2.43;;;;;5.40;97747.00;;;;4973439;28;20254;-85
2022/04/17 00:31:13;;;;;;;2.50;2.30;;;;;5.40;97742.00;;;;4973620;28;20342;-86
2022/04/17 00:33:41;;;;;;;3.10;2.07;;;;;5.40;97742.00;;;;4972606;28;20210;-86
2022/04/17 00:36:12;;;;;;;3.67;2.50;;;;;5.40;97749.00;;;;4973369;28;20209;-85
2022/04/17 00:38:40;;;;;;;2.27;1.90;;;;;5.30;97737.00;;;;4973876;28;20202;-86
2022/04/17 00:41:09;;;;;;;2.23;2.13;;;;;5.30;97737.00;;;;4973988;28;20477;-85
2022/04/17 00:43:46;;;;;;;2.30;2.10;;;;;5.30;97737.00;;;;4973057;28;20466;-85
2022/04/17 00:46:16;;;;;;;2.40;2.20;;;;;5.50;97731.00;;;;4973228;28;20443;-86
2022/04/17 00:48:45;;;;;;;1.83;1.67;;;;;5.60;97738.00;;;;4972883;28;20454;-86
2022/04/17 00:51:16;;;;;;;2.40;2.20;;;;;5.70;97732.00;;;;4974237;28;20532;-84
2022/04/17 00:53:46;;;;;;;2.27;2.10;;;;;5.70;97743.00;;;;4974599;28;20489;-85
2022/04/17 00:56:15;;;;;;;2.37;1.93;;;;;5.70;97731.00;;;;4973260;28;20215;-84
2022/04/17 00:58:44;;;;;;;3.13;1.97;;;;;5.50;97733.00;;;;4972216;28;20226;-85
2022/04/17 01:01:13;;;;;;;2.00;1.77;;;;;5.50;97737.00;;;;4972634;28;20223;-84
2022/04/17 01:03:42;;;;;;;2.07;1.87;;;;;5.40;97726.00;;;;4972590;28;20303;-84
2022/04/17 01:06:11;;;;;;;2.20;2.07;;;;;5.10;97726.00;;;;4973618;28;20230;-85
2022/04/17 01:08:41;;;;;;;2.50;1.60;;;;;5.40;97722.00;;;;4972734;28;20231;-84
2022/04/17 01:11:11;;;;;;;2.03;1.83;;;;;5.30;97718.00;;;;4973058;28;20311;-84
2022/04/17 01:13:41;;;;;;;3.77;2.20;;;;;5.50;97717.00;;;;4972234;28;20207;-83
2022/04/17 01:16:10;;;;;;;2.23;1.70;;;;;5.60;97720.00;;;;4973706;28;20207;-86
2022/04/17 01:19:00;;;;;;;2.83;1.70;;;;;5.70;97724.00;;;;4972085;28;20278;-85
2022/04/17 01:21:31;;;;;;;2.77;2.03;;;;;5.80;97708.00;;;;4970640;28;20235;-84
2022/04/17 01:29:35;;;;;;;3.33;1.73;;;;;5.50;97699.00;;;;4963378;28;20466;-84
2022/04/17 01:32:05;;;;;;;4.20;2.50;;;;;5.70;97701.00;;;;4971936;28;20441;-84
2022/04/17 01:34:34;;;;;;;2.00;1.83;;;;;5.70;97698.00;;;;4971215;28;20191;-86
2022/04/17 01:37:05;;;;;;;1.83;1.70;;;;;5.60;97693.00;;;;4975506;28;20405;-86
2022/04/17 01:39:34;;;;;;;1.80;1.60;;;;;5.70;97702.00;;;;4974848;28;20474;-86
2022/04/17 01:42:04;;;;;;;5.03;2.50;;;;;5.70;97687.00;;;;4975810;28;20199;-85
2022/04/17 01:44:33;;;;;;;3.67;1.60;;;;;5.70;97679.00;;;;4974497;28;20497;-85
2022/04/17 01:47:03;;;;;;;3.53;2.10;;;;;5.50;97677.00;;;;4974701;28;20206;-85
2022/04/17 01:49:32;;;;;;;2.60;2.10;;;;;5.60;97684.00;;;;4964108;28;20207;-84
2022/04/17 01:52:03;;;;;;;5.10;1.87;;;;;5.60;97678.00;;;;4974189;28;20204;-84
2022/04/17 01:54:32;;;;;;;2.40;2.03;;;;;5.60;97671.00;;;;4975663;28;20203;-86
2022/04/17 01:57:01;;;;;;;2.03;1.87;;;;;5.70;97674.00;;;;4968688;28;20450;-86
2022/04/17 01:59:30;;;;;;;2.60;2.40;;;;;5.70;97675.00;;;;4971608;28;20376;-85
2022/04/17 02:02:00;;;;;;;1.53;1.43;;;;;5.50;97670.00;;;;4974379;28;20450;-83
2022/04/17 02:04:35;;;;;;;1.93;1.83;;;;;5.70;97669.00;;;;4974105;28;20486;-84
2022/04/17 02:07:05;;;;;;;3.03;2.13;;;;;5.70;97667.00;;;;4971775;28;20433;-85
2022/04/17 02:09:34;;;;;;;1.53;1.37;;;;;5.20;97642.00;;;;4974512;28;20282;-84
2022/04/17 02:12:04;;;;;;;2.77;2.30;;;;;5.60;97660.00;;;;4973334;28;20203;-84
2022/04/17 02:14:32;;;;;;;1.87;1.70;;;;;5.60;97655.00;;;;4975040;28;20443;-84
2022/04/17 02:17:02;;;;;;;2.10;1.67;;;;;5.50;97655.00;;;;4977190;28;20474;-85
2022/04/17 02:19:32;;;;;;;1.90;1.70;;;;;5.50;97662.00;;;;4975231;28;20274;-85
2022/04/17 02:22:00;;;;;;;2.83;2.13;;;;;5.20;97658.00;;;;4975596;28;20250;-84
2022/04/17 02:24:32;;;;;;;3.03;1.93;;;;;4.70;97647.00;;;;4975488;28;20232;-84
2022/04/17 02:27:00;;;;;;;3.30;1.53;;;;;4.90;97650.00;;;;4974337;28;20449;-84
2022/04/17 02:29:30;;;;;;;4.23;1.93;;;;;4.90;97640.00;;;;4974043;28;20231;-84
2022/04/17 02:31:58;;;;;;;2.23;1.80;;;;;4.90;97641.00;;;;4974477;28;20434;-84
2022/04/17 02:34:27;;;;;;;2.03;1.90;;;;;5.00;97643.00;;;;4974304;28;20446;-85
2022/04/17 02:36:56;;;;;;;2.17;1.77;;;;;5.00;97643.00;;;;4976006;28;20470;-85
2022/04/17 02:39:25;;;;;;;2.73;2.03;;;;;4.90;97636.00;;;;4978212;28;20477;-84
2022/04/17 02:41:56;;;;;;;4.50;1.90;;;;;4.90;97639.00;;;;4977488;28;20497;-84
2022/04/17 02:44:24;;;;;;;2.77;2.47;;;;;4.30;97637.00;;;;4977318;28;20481;-85
2022/04/17 02:49:39;;;;;;;2.97;1.87;;;;;4.60;97642.00;;;;4968408;28;20557;-86
2022/04/17 02:52:08;;;;;;;2.10;1.90;;;;;4.80;97642.00;;;;4975443;28;20447;-84
2022/04/17 02:54:38;;;;;;;3.57;2.00;;;;;4.50;97635.00;;;;4971065;28;20463;-85
2022/04/17 02:57:08;;;;;;;1.70;1.53;;;;;4.60;97630.00;;;;4972867;28;20529;-84
2022/04/17 02:59:37;;;;;;;7.00;2.13;;;;;4.60;97629.00;;;;4974511;28;20466;-85
2022/04/17 03:07:38;;;;;;;6.03;2.13;;;;;4.70;97633.00;;;;4974423;28;20474;-84
2022/04/17 03:10:08;;;;;;;2.40;2.00;;;;;4.40;97626.00;;;;4974882;28;20494;-84
2022/04/17 03:12:39;;;;;;;2.53;2.00;;;;;4.50;97623.00;;;;4974779;28;20502;-84
2022/04/17 03:15:09;;;;;;;1.67;1.50;;;;;4.50;97620.00;;;;4964960;28;20498;-85
2022/04/17 03:17:38;;;;;;;1.90;1.80;;;;;4.80;97625.00;;;;4971347;28;20445;-84
2022/04/17 03:20:08;;;;;;;2.27;1.77;;;;;4.70;97629.00;;;;4972389;28;20459;-84
2022/04/17 03:22:41;;;;;;;1.90;1.80;;;;;4.40;97616.00;;;;4975412;28;20445;-85
2022/04/17 03:25:11;;;;;;;2.13;1.87;;;;;4.50;97616.00;;;;4974318;28;20475;-85
2022/04/17 03:27:43;;;;;;;2.43;2.23;;;;;4.10;97610.00;;;;4974591;28;20443;-85
2022/04/17 03:30:12;;;;;;;1.80;1.70;;;;;4.20;97618.00;;;;4974096;28;20470;-85
2022/04/17 03:32:41;;;;;;;2.57;2.37;;;;;3.90;97623.00;;;;4974426;28;20439;-86
2022/04/17 03:35:10;;;;;;;2.13;1.93;;;;;3.60;97615.00;;;;4973299;28;20450;-86
2022/04/17 03:37:42;;;;;;;2.37;2.17;;;;;3.70;97618.00;;;;4968090;28;20443;-84
2022/04/17 03:40:11;;;;;;;1.80;1.60;;;;;3.20;97614.00;;;;4973678;28;20470;-84
2022/04/17 03:42:42;;;;;;;2.17;2.03;;;;;2.90;97601.00;;;;4974137;28;20451;-85
2022/04/17 03:45:14;;;;;;;3.27;2.10;;;;;2.60;97601.00;;;;4973012;28;20567;-85
2022/04/17 03:47:43;;;;;;;2.40;2.20;;;;;2.00;97610.00;;;;4972174;28;20438;-86
2022/04/17 03:50:12;;;;;;;2.43;2.23;;;;;2.20;97595.00;;;;4969265;28;20474;-85
2022/04/17 03:52:42;;;;;;;1.87;1.77;;;;;2.40;97603.00;;;;4972985;28;20445;-85
2022/04/17 03:55:12;;;;;;;2.67;2.23;;;;;2.20;97606.00;;;;4970509;28;20454;-86
2022/04/17 03:57:42;;;;;;;2.20;1.80;;;;;2.10;97608.00;;;;4972650;28;20435;-86
2022/04/17 04:00:13;;;;;;;2.90;2.40;;;;;1.70;97593.00;;;;4971476;28;20462;-88
2022/04/17 04:02:43;;;;;;;2.43;2.00;;;;;1.80;97611.00;;;;4973984;28;20989;-85
2022/04/17 04:05:13;;;;;;;1.50;1.40;;;;;1.40;97603.00;;;;4972968;28;20485;-87
2022/04/17 04:07:42;;;;;;;2.27;2.07;;;;;1.60;97605.00;;;;4973609;28;20439;-85
2022/04/17 04:10:11;;;;;;;4.97;2.30;;;;;2.20;97611.00;;;;4973617;28;20458;-85
2022/04/17 04:12:41;;;;;;;1.53;1.43;;;;;1.40;97608.00;;;;4967780;28;20439;-85
2022/04/17 04:15:10;;;;;;;2.60;1.67;;;;;1.90;97597.00;;;;4973296;28;20447;-84
2022/04/17 04:17:39;;;;;;;1.93;1.80;;;;;1.40;97606.00;;;;4973191;28;20465;-86
2022/04/17 04:20:10;;;;;;;1.63;1.53;;;;;1.30;97606.00;;;;4973666;28;20486;-85
2022/04/17 04:22:39;;;;;;;2.10;2.00;;;;;1.40;97613.00;;;;4971126;28;20443;-87
2022/04/17 04:25:09;;;;;;;1.77;1.67;;;;;1.40;97600.00;;;;4973002;28;20489;-86
2022/04/17 04:30:25;;;;;;;1.30;1.20;;;;;0.90;97596.00;;;;4973620;28;20554;-87
2022/04/17 04:32:56;;;;;;;2.17;1.93;;;;;1.80;97606.00;;;;4971952;28;20443;-84
2022/04/17 04:35:26;;;;;;;1.83;1.73;;;;;1.60;97596.00;;;;4972054;28;20431;-86
2022/04/17 04:37:56;;;;;;;1.50;1.33;;;;;0.90;97597.00;;;;4973417;28;20522;-86
2022/04/17 04:40:24;;;;;;;1.73;1.60;;;;;1.00;97594.00;;;;4972723;28;20549;-83
2022/04/17 04:42:58;;;;;;;1.57;1.50;;;;;0.70;97593.00;;;;4973387;28;20438;-87
2022/04/17 04:49:29;;;;;;;2.90;1.70;;;;;0.60;97594.00;;;;4972782;28;20447;-86
2022/04/17 04:51:04;;;;;;;2.97;2.33;;;;;1.10;97594.00;;;;4973316;28;20474;-85
2022/04/17 04:53:33;;;;;;;2.10;1.80;;;;;1.40;97601.00;;;;4963952;28;20514;-86
2022/04/17 04:56:02;;;;;;;1.87;1.77;;;;;1.60;97601.00;;;;4973049;28;20435;-85
2022/04/17 04:58:31;;;;;;;1.90;1.77;;;;;1.60;97594.00;;;;4973361;28;20490;-85
2022/04/17 05:01:01;;;;;;;2.53;1.60;;;;;2.00;97604.00;;;;4973427;28;20454;-84
2022/04/17 05:03:30;;;;;;;2.80;1.87;;;;;1.40;97595.00;;;;4974617;28;20458;-85
2022/04/17 05:05:59;;;;;;;1.80;1.70;;;;;1.40;97596.00;;;;4972384;28;20475;-87
2022/04/17 05:08:28;;;;;;;2.37;2.17;;;;;1.70;97587.00;;;;4973231;28;20435;-87
2022/04/17 05:10:57;;;;;;;3.13;2.57;;;;;1.80;97599.00;;;;4975925;28;20458;-86
2022/04/17 05:13:26;;;;;;;2.90;2.47;;;;;1.70;97597.00;;;;4979361;28;20460;-86
2022/04/17 05:15:55;;;;;;;7.97;4.43;;;;;1.90;97610.00;;;;4978058;28;20435;-86
2022/04/17 05:18:28;;;;;;;9.67;4.23;;;;;1.60;97600.00;;;;4976575;28;20458;-85
2022/04/17 05:20:57;;;;;;;5.93;4.27;;;;;1.60;97607.00;;;;4976950;28;20465;-89
2022/04/17 05:23:29;;;;;;;3.03;2.73;;;;;1.80;97599.00;;;;4978523;28;20446;-85
2022/04/17 05:26:00;;;;;;;5.07;1.77;;;;;2.10;97592.00;;;;4977713;28;20598;-86
2022/04/17 05:28:29;;;;;;;4.60;2.03;;;;;2.10;97594.00;;;;4976718;28;20453;-85
2022/04/17 05:31:00;;;;;;;2.10;1.87;;;;;2.60;97595.00;;;;4969119;28;20521;-85
2022/04/17 05:33:30;;;;;;;3.50;3.10;;;;;2.70;97602.00;;;;4976774;28;20435;-87
2022/04/17 05:35:59;;;;;;;3.90;3.10;;;;;2.80;97603.00;;;;4976467;28;20431;-86
2022/04/17 05:38:28;;;;;;;3.50;2.17;;;;;2.80;97596.00;;;;4971443;28;20462;-86
2022/04/17 05:40:57;;;;;;;2.77;2.53;;;;;2.80;97585.00;;;;4976800;28;20473;-86
2022/04/17 05:43:26;;;;;;;2.13;2.00;;;;;3.60;97599.00;;;;4976152;28;20514;-85
2022/04/17 05:45:55;;;;;;;0.90;0.90;;;;;3.10;97587.00;;;;4976262;28;20477;-86
2022/04/17 05:48:24;;;;;;;4.40;2.67;;;;;3.80;97602.00;;;;4975965;28;20449;-86
2022/04/17 05:50:54;;;;;;;3.63;2.63;;;;;4.40;97598.00;;;;4980783;28;20500;-86
2022/04/17 05:53:23;;;;;;;2.50;2.30;;;;;4.90;97609.00;;;;4978380;28;20501;-85
2022/04/17 05:55:51;;;;;;;3.23;2.60;;;;;5.30;97597.00;;;;4971413;28;20498;-85
2022/04/17 05:58:20;;;;;;;2.47;1.97;;;;;5.80;97595.00;;;;4978346;28;20438;-84
2022/04/17 06:00:49;;;;;;;2.27;2.07;;;;;6.10;97594.00;;;;4976479;28;20469;-84
2022/04/17 06:03:18;;;;;;;2.80;2.00;;;;;6.10;97602.00;;;;4967290;28;20431;-85
2022/04/17 06:05:47;;;;;;;1.60;1.50;;;;;6.40;97597.00;;;;4976605;28;20482;-86
2022/04/17 06:08:17;;;;;;;2.30;1.83;;;;;6.70;97606.00;;;;4977708;28;20442;-84
2022/04/17 06:10:46;;;;;;;4.60;2.23;;;;;6.70;97595.00;;;;4977412;28;20455;-85
2022/04/17 06:13:15;;;;;;;2.17;1.77;;;;;6.80;97602.00;;;;4976784;28;20209;-85
2022/04/17 06:15:43;;;;;;;1.87;1.77;;;;;7.20;97605.00;;;;4980311;28;20211;-85
2022/04/17 06:18:12;;;;;;;5.13;2.27;;;;;7.40;97608.00;;;;4976400;28;20218;-86
2022/04/17 06:20:41;;;;;;;2.30;1.90;;;;;7.50;97607.00;;;;4978014;28;20220;-85
2022/04/17 06:23:10;;;;;;;2.23;2.03;;;;;7.30;97611.00;;;;4973286;28;20207;-87
2022/04/17 06:25:40;;;;;;;1.90;1.80;;;;;7.70;97604.00;;;;4975270;28;20243;-85
2022/04/17 06:28:09;;;;;;;5.27;2.13;;;;;7.60;97600.00;;;;4980723;28;20311;-82
2022/04/17 06:30:38;;;;;;;1.90;1.70;;;;;7.80;97610.00;;;;4964642;28;20223;-84
2022/04/17 06:33:06;;;;;;;3.13;2.13;;;;;7.90;97618.00;;;;4976745;28;20215;-87
2022/04/17 06:35:35;;;;;;;2.20;1.60;;;;;8.00;97608.00;;;;4977847;28;20207;-86
2022/04/17 06:38:08;;;;;;;2.10;1.90;;;;;8.00;97604.00;;;;4977257;28;20203;-86
2022/04/17 06:40:39;;;;;;;3.03;1.80;;;;;8.20;97600.00;;;;4975549;28;20242;-87
2022/04/17 06:43:09;;;;;;;2.70;1.97;;;;;8.10;97606.00;;;;4976902;28;20203;-85
2022/04/17 06:45:38;;;;;;;2.40;2.20;;;;;8.20;97609.00;;;;4975312;28;20206;-85
2022/04/17 06:48:14;;;;;;;2.03;1.77;;;;;8.10;97601.00;;;;4978410;28;20306;-87
2022/04/17 06:50:44;;;;;;;2.07;1.73;;;;;8.20;97610.00;;;;4976193;28;20222;-85
2022/04/17 06:53:13;;;;;;;3.63;1.70;;;;;8.30;97612.00;;;;4969166;28;20207;-86
2022/04/17 06:55:43;;;;;;;3.13;1.57;;;;;8.10;97589.00;;;;4980609;28;20250;-86
2022/04/17 06:58:14;;;;;;;3.93;1.97;;;;;8.20;97597.00;;;;4973169;28;22025;-87
2022/04/17 07:00:42;;;;;;;1.73;1.63;;;;;8.40;97598.00;;;;4975908;28;20221;-86
2022/04/17 07:03:13;;;;;;;2.90;1.40;;;;;8.60;97600.00;;;;4974094;28;20221;-87
2022/04/17 07:05:42;;;;;;;1.50;1.40;;;;;8.40;97608.00;;;;4977960;28;20203;-84
2022/04/17 07:08:11;;;;;;;2.27;1.90;;;;;8.50;97594.00;;;;4970531;28;20253;-87
2022/04/17 07:10:42;;;;;;;1.50;1.40;;;;;8.40;97603.00;;;;4967198;28;20234;-87
2022/04/17 07:13:14;;;;;;;1.73;1.63;;;;;8.80;97600.00;;;;4966250;28;20195;-86
2022/04/17 07:15:43;;;;;;;1.67;1.57;;;;;9.30;97608.00;;;;4966210;28;20210;-85
2022/04/17 07:18:12;;;;;;;2.13;1.90;;;;;8.90;97605.00;;;;4971427;28;20272;-86
2022/04/17 07:20:41;;;;;;;2.80;1.80;;;;;8.50;97606.00;;;;4971300;28;20226;-86
2022/04/17 07:23:10;;;;;;;1.70;1.60;;;;;8.80;97607.00;;;;4968399;28;20210;-87
2022/04/17 07:25:39;;;;;;;2.00;1.50;;;;;8.70;97603.00;;;;4975082;28;20208;-85
2022/04/17 07:28:13;;;;;;;1.60;1.50;;;;;9.10;97606.00;;;;4966306;28;20501;-86
2022/04/17 07:30:44;;;;;;;1.40;1.27;;;;;9.30;97590.00;;;;4973653;28;20223;-84
2022/04/17 07:33:13;;;;;;;1.37;1.27;;;;;9.10;97594.00;;;;4975890;28;20215;-86
2022/04/17 07:35:41;;;;;;;2.97;1.50;;;;;9.60;97601.00;;;;4975617;28;20199;-87
2022/04/17 07:38:10;;;;;;;2.40;1.97;;;;;9.40;97597.00;;;;4974356;28;20195;-86
2022/04/17 07:40:39;;;;;;;5.40;1.90;;;;;9.60;97589.00;;;;4975270;28;20251;-84
2022/04/17 07:43:09;;;;;;;2.67;1.73;;;;;9.50;97587.00;;;;4977373;28;20262;-85
2022/04/17 07:45:38;;;;;;;2.00;1.50;;;;;9.60;97603.00;;;;4975560;28;20684;-87
2022/04/17 07:48:07;;;;;;;2.57;1.73;;;;;9.70;97593.00;;;;4978620;28;20262;-84
2022/04/17 07:50:36;;;;;;;1.70;1.27;;;;;9.70;97583.00;;;;4980814;28;20227;-87
2022/04/17 07:53:05;;;;;;;2.87;1.63;;;;;10.30;97595.00;;;;4981373;28;20203;-89
2022/04/17 07:55:35;;;;;;;3.03;1.40;;;;;10.30;97591.00;;;;4980484;28;20210;-87
2022/04/17 07:58:08;;;;;;;2.73;1.87;;;;;10.20;97589.00;;;;4971686;28;20206;-88
2022/04/17 08:00:45;;;;;;;1.60;1.50;;;;;10.00;97577.00;;;;4978700;28;20313;-87
2022/04/17 08:03:24;;;;;;;3.80;1.50;;;;;10.00;97584.00;;;;4977233;28;20198;-87
2022/04/17 08:05:53;;;;;;;5.53;2.13;;;;;10.00;97575.00;;;;4975434;28;20203;-86
2022/04/17 08:08:22;;;;;;;1.73;1.57;;;;;10.70;97573.00;;;;4975838;28;20354;-86
2022/04/17 08:10:51;;;;;;;3.90;2.67;;;;;10.20;97571.00;;;;4975048;28;20315;-86
2022/04/17 08:13:20;;;;;;;2.87;1.30;;;;;11.00;97584.00;;;;4975490;28;20211;-88
2022/04/17 08:15:50;;;;;;;1.37;1.10;;;;;10.30;97580.00;;;;4977057;28;20205;-87
2022/04/17 08:18:19;;;;;;;2.07;1.60;;;;;11.00;97583.00;;;;4978098;28;20195;-86
2022/04/17 08:20:48;;;;;;;1.93;1.80;;;;;10.20;97576.00;;;;4977503;28;20218;-86
2022/04/17 08:23:17;;;;;;;1.80;1.70;;;;;10.50;97583.00;;;;4975990;28;20204;-85
2022/04/17 08:25:46;;;;;;;1.47;1.33;;;;;10.60;97568.00;;;;4965087;28;20203;-86
2022/04/17 08:28:15;;;;;;;1.53;1.23;;;;;10.80;97559.00;;;;4978034;28;20235;-87
2022/04/17 08:30:44;;;;;;;7.13;1.73;;;;;11.50;97570.00;;;;4978028;28;20227;-87
2022/04/17 08:33:14;;;;;;;1.67;1.57;;;;;10.50;97550.00;;;;4980269;28;20211;-86
2022/04/17 08:35:44;;;;;;;3.43;1.80;;;;;11.40;97555.00;;;;4980312;28;20257;-87
2022/04/17 08:38:16;;;;;;;3.30;2.13;;;;;11.30;97558.00;;;;4976297;28;20206;-88
2022/04/17 08:40:45;;;;;;;1.50;1.40;;;;;10.50;97533.00;;;;4970220;28;20223;-86
2022/04/17 08:43:13;;;;;;;2.07;1.57;;;;;11.70;97541.00;;;;4972112;28;20210;-86
2022/04/17 08:45:42;;;;;;;1.30;1.20;;;;;11.70;97537.00;;;;4974675;28;20207;-86
2022/04/17 08:48:11;;;;;;;2.70;1.70;;;;;11.20;97548.00;;;;4973985;28;20254;-85
2022/04/17 08:50:43;;;;;;;1.53;1.10;;;;;11.20;97550.00;;;;4996640;23;20242;-68
2022/04/17 08:53:16;;;;;;;4.63;1.83;;;;;11.90;97529.00;;;;4965961;28;20640;-68
2022/04/17 08:55:48;;;;;;;2.33;1.90;;;;;12.30;97543.00;;;;4970012;28;20203;-69
2022/04/17 08:58:16;;;;;;;2.20;1.40;;;;;11.80;97531.00;;;;4959670;28;20228;-68
2022/04/17 09:00:45;;;;;;;2.03;1.53;;;;;11.80;97525.00;;;;4952040;28;20208;-69
2022/04/17 09:03:14;;;;;;;2.23;1.73;;;;;12.00;97527.00;;;;4958217;28;20219;-69
2022/04/17 09:05:45;;;;;;;2.47;1.73;;;;;12.60;97531.00;;;;4971032;28;20203;-68
2022/04/17 09:08:16;;;;;;;1.60;1.50;;;;;12.60;97534.00;;;;4957432;28;20199;-69
2022/04/17 09:10:54;;;;;;;1.50;1.40;;;;;11.30;97521.00;;;;4971016;28;20203;-69
2022/04/17 09:13:28;;;;;;;1.67;1.33;;;;;11.70;97505.00;;;;4971005;28;20230;-69
2022/04/17 09:15:57;;;;;;;2.80;1.30;;;;;12.60;97515.00;;;;4970932;28;20214;-69
2022/04/17 09:18:29;;;;;;;1.50;1.40;;;;;13.00;97528.00;;;;4970203;28;20288;-69
2022/04/17 09:21:01;;;;;;;3.53;1.53;;;;;12.20;97504.00;;;;4954868;28;20223;-69
2022/04/17 09:23:37;;;;;;;2.80;1.20;;;;;11.90;97511.00;;;;4970855;28;20227;-69
2022/04/17 09:26:06;;;;;;;1.43;1.33;;;;;12.00;97497.00;;;;4970911;28;20226;-69
2022/04/17 09:28:36;;;;;;;1.37;1.27;;;;;12.30;97495.00;;;;4969950;28;20275;-69
2022/04/17 09:31:11;;;;;;;1.80;1.30;;;;;13.20;97500.00;;;;4970877;28;20203;-69
2022/04/17 09:33:42;;;;;;;1.93;1.30;;;;;13.70;97497.00;;;;4970430;28;20218;-68
2022/04/17 09:36:12;;;;;;;3.40;1.73;;;;;13.80;97492.00;;;;4970809;28;20286;-69
2022/04/17 09:38:42;;;;;;;2.67;1.50;;;;;13.20;97486.00;;;;4968834;28;20238;-69
2022/04/17 09:41:13;;;;;;;1.77;1.43;;;;;13.20;97493.00;;;;4970649;28;20223;-69
2022/04/17 09:43:43;;;;;;;1.17;1.10;;;;;12.50;97485.00;;;;4957931;28;20318;-67
2022/04/17 09:46:13;;;;;;;1.87;1.67;;;;;12.00;97480.00;;;;4962046;28;20323;-69
2022/04/17 09:48:44;;;;;;;2.33;1.17;;;;;13.00;97464.00;;;;4960983;28;20196;-69
2022/04/17 09:51:24;;;;;;;3.30;1.37;;;;;13.80;97475.00;;;;4951473;28;20235;-69
2022/04/17 09:54:00;;;;;;;2.60;2.40;;;;;13.40;97473.00;;;;4951079;28;20224;-68
2022/04/17 09:56:33;;;;;;;3.23;1.53;;;;;14.30;97473.00;;;;4970091;28;20206;-68
2022/04/17 09:59:03;;;;;;;1.90;1.23;;;;;14.30;97460.00;;;;4973626;28;20223;-68
2022/04/17 10:01:31;;;;;;;2.93;1.60;;;;;14.50;97462.00;;;;4956605;28;20227;-68
2022/04/17 10:04:01;;;;;;;1.73;1.03;;;;;13.80;97474.00;;;;4954556;28;20232;-69
2022/04/17 10:06:32;;;;;;;2.63;1.30;;;;;11.50;97440.00;;;;4960607;28;20278;-69
2022/04/17 10:09:01;;;;;;;1.83;1.40;;;;;12.80;97432.00;;;;4956346;28;20196;-69
2022/04/17 10:11:31;;;;;;;1.43;1.10;;;;;14.50;97435.00;;;;4968137;28;20204;-70
2022/04/17 10:14:01;;;;;;;1.43;1.33;;;;;14.40;97433.00;;;;4966859;28;20227;-69
2022/04/17 10:16:32;;;;;;;2.23;1.30;;;;;15.40;97447.00;;;;4970447;28;20203;-69
2022/04/17 10:19:02;;;;;;;1.50;1.40;;;;;14.60;97425.00;;;;4973359;28;20215;-69
2022/04/17 10:21:33;;;;;;;2.53;1.47;;;;;15.20;97419.00;;;;4967367;28;20204;-69
2022/04/17 10:24:03;;;;;;;1.40;1.20;;;;;14.90;97425.00;;;;4954009;28;20228;-69
2022/04/17 10:26:35;;;;;;;1.93;1.00;;;;;12.40;97381.00;;;;4954631;28;20208;-68
2022/04/17 10:29:06;;;;;;;1.40;1.30;;;;;13.50;97397.00;;;;4966410;28;20200;-69
2022/04/17 10:31:42;;;;;;;3.60;1.40;;;;;14.20;97392.00;;;;4956985;28;20202;-69
2022/04/17 10:34:33;;;;;;;1.50;1.40;;;;;15.40;97386.00;;;;4973049;28;20242;-69
2022/04/17 10:37:29;;;;;;;2.40;1.37;;;;;15.80;97400.00;;;;4973283;28;20230;-69
2022/04/17 10:39:59;;;;;;;1.67;1.53;;;;;14.30;97373.00;;;;4970555;28;20200;-69
2022/04/17 10:42:35;;;;;;;1.80;1.37;;;;;14.60;97374.00;;;;4973851;28;20329;-67
2022/04/17 10:45:05;;;;;;;1.50;1.40;;;;;13.40;97363.00;;;;4960252;28;20258;-69
2022/04/17 10:47:35;;;;;;;2.10;1.20;;;;;13.70;97347.00;;;;4967750;28;20206;-69
2022/04/17 10:50:09;;;;;;;1.97;1.23;;;;;13.90;97362.00;;;;4953676;28;20259;-61
2022/04/17 10:52:43;;;;;;;1.93;1.40;;;;;14.70;97355.00;;;;4953878;28;20237;-68
2022/04/17 10:55:14;;;;;;;1.73;1.30;;;;;14.30;97353.00;;;;4953959;28;20207;-66
2022/04/17 10:57:44;;;;;;;3.23;1.53;;;;;14.40;97360.00;;;;4953264;28;20219;-68
2022/04/17 11:00:27;;;;;;;1.03;1.03;;;;;14.70;97349.00;;;;4953617;28;20200;-68
2022/04/17 11:03:26;;;;;;;1.70;1.00;;;;;14.30;97326.00;;;;4953458;28;20231;-68
2022/04/17 11:06:10;;;;;;;1.70;1.60;;;;;15.50;97360.00;;;;4972906;28;20289;-68
2022/04/17 11:08:52;;;;;;;2.60;1.53;;;;;13.80;97328.00;;;;4971150;28;20199;-69
2022/04/17 11:11:21;;;;;;;3.13;1.47;;;;;15.00;97332.00;;;;4972960;28;20199;-68
2022/04/17 11:14:08;;;;;;;1.80;1.70;;;;;15.20;97322.00;;;;4972463;28;20219;-69
2022/04/17 11:16:54;;;;;;;4.73;1.73;;;;;15.00;97326.00;;;;4972042;28;20246;-67
2022/04/17 11:19:24;;;;;;;3.27;1.57;;;;;14.40;97325.00;;;;4972167;28;20223;-69
2022/04/17 11:21:54;;;;;;;2.83;1.67;;;;;14.20;97319.00;;;;4978706;28;20206;-70
2022/04/17 11:24:25;;;;;;;1.63;1.43;;;;;16.10;97312.00;;;;4953169;28;20204;-69
2022/04/17 11:27:10;;;;;;;3.10;1.50;;;;;16.40;97310.00;;;;4955715;28;20203;-68
2022/04/17 11:29:41;;;;;;;2.30;1.40;;;;;15.00;97308.00;;;;4972314;28;20202;-63
2022/04/17 11:32:47;;;;;;;2.00;1.73;;;;;15.60;97300.00;;;;4966463;28;20199;-66
2022/04/17 11:35:17;;;;;;;2.03;1.50;;;;;15.00;97300.00;;;;4953057;28;20214;-67
2022/04/17 11:37:55;;;;;;;3.20;1.23;;;;;16.70;97317.00;;;;4952752;28;20679;-68
2022/04/17 11:40:27;;;;;;;1.27;1.10;;;;;17.10;97311.00;;;;4958707;28;20219;-69
2022/04/17 11:42:57;;;;;;;1.23;0.97;;;;;16.30;97305.00;;;;4972235;28;20223;-68
2022/04/17 11:45:27;;;;;;;1.93;1.33;;;;;15.60;97294.00;;;;4964155;28;20231;-68
2022/04/17 11:47:57;;;;;;;1.67;1.13;;;;;17.80;97300.00;;;;4965950;28;20210;-69
2022/04/17 11:50:28;;;;;;;1.60;1.03;;;16.00;46.30;17.30;97293.00;;;;4952773;28;20208;-69
2022/04/17 11:52:59;;;;;;;5.00;3.13;;;16.20;46.40;18.60;97309.00;;;;4952492;28;20220;-68
2022/04/17 11:55:31;;;;;;;1.47;1.10;;;16.40;45.90;18.20;97304.00;;;;4952751;28;20282;-70
2022/04/17 11:58:00;;;;;;;3.70;1.10;;;16.60;46.30;17.80;97283.00;;;;4952192;28;20227;-67
2022/04/17 12:00:30;;;;;;;2.27;1.10;;;16.80;44.40;18.90;97297.00;;;;4952652;28;20311;-68
2022/04/17 12:03:02;;;;;;;1.70;0.87;;;17.10;45.90;18.60;97290.00;;;;4952532;28;20230;-68
2022/04/17 12:05:32;;;;;;;2.03;1.20;;;17.40;45.30;18.90;97287.00;;;;4969609;28;20200;-69
2022/04/17 12:08:13;;;;;;;2.53;1.40;;;17.40;44.10;17.50;97280.00;;;;4968346;28;20196;-67
2022/04/17 12:10:44;;;;;;;2.57;1.07;;;17.30;43.00;16.00;97283.00;;;;4969043;28;20202;-69
2022/04/17 12:13:18;;;;;;;1.53;1.10;;;17.20;43.20;17.20;97275.00;;;;4969639;28;20219;-68
2022/04/17 12:15:49;;;;;;;0.87;0.80;;;16.90;43.10;18.60;97273.00;;;;4973720;28;20211;-69
2022/04/17 12:18:19;;;;;;;3.67;1.17;;;17.00;43.90;19.90;97267.00;;;;4970451;28;20235;-69
2022/04/17 12:20:58;;;;;;;2.10;1.90;;;17.40;45.10;19.80;97268.00;;;;4970287;28;20195;-69
2022/04/17 12:23:29;;;;;;;1.90;1.20;;;18.00;45.20;16.20;97243.00;;;;4967349;28;20219;-70
2022/04/17 12:26:00;;;;;;;1.23;1.07;;;17.90;41.10;16.70;97241.00;;;;4971322;28;20195;-70
2022/04/17 12:28:29;;;;;;;0.97;0.90;;;17.60;42.20;19.80;97239.00;;;;4965568;28;20278;-70
2022/04/17 12:30:58;;;;;;;1.30;1.20;;;17.70;43.80;19.90;97253.00;;;;4970552;28;20191;-69
2022/04/17 12:33:29;;;;;;;1.13;1.00;;;18.00;43.90;19.20;97239.00;;;;4969153;28;20214;-70
2022/04/17 12:36:07;;;;;;;1.23;1.13;;;18.20;42.20;18.60;97255.00;;;;4969487;28;20254;-70
2022/04/17 12:38:37;;;;;;;3.00;1.03;;;18.30;41.10;16.70;97235.00;;;;4968347;28;20218;-70
2022/04/17 12:41:22;;;;;;;1.27;1.17;;;18.10;39.80;18.20;97234.00;;;;4970107;28;20195;-70
2022/04/17 12:43:51;;;;;;;1.90;1.27;;;17.90;41.40;19.20;97237.00;;;;4968762;28;20222;-70
2022/04/17 12:46:28;;;;;;;1.90;1.00;;;17.90;41.80;21.00;97247.00;;;;4967876;28;20203;-70
2022/04/17 12:49:05;;;;;;;1.00;1.00;;;18.20;42.70;18.80;97235.00;;;;4968847;28;20659;-68
2022/04/17 12:51:34;;;;;;;1.33;1.07;;;18.40;40.50;19.10;97222.00;;;;4967867;28;20211;-68
2022/04/17 12:54:05;;;;;;;1.87;1.47;;;18.30;41.40;18.00;97215.00;;;;4968977;28;20219;-69